createdAt,value
2018-12-18T00:00:28.972Z,53.30
2018-12-18T00:01:00.061Z,53.20
2018-12-18T00:01:31.100Z,53.20
2018-12-18T00:02:02.208Z,53.20
2018-12-18T00:02:33.303Z,53.20
2018-12-18T00:03:04.343Z,53.20
2018-12-18T00:03:39.277Z,53.20
2018-12-18T00:04:08.443Z,52.90
2018-12-18T00:04:39.537Z,53.20
2018-12-18T00:05:10.603Z,53.10
2018-12-18T00:05:41.675Z,53.20
2018-12-18T00:06:12.722Z,53.20
2018-12-18T00:06:43.877Z,53.00
2018-12-18T00:07:14.972Z,53.30
2018-12-18T00:07:46.071Z,53.20
2018-12-18T00:08:17.133Z,53.20
2018-12-18T00:08:48.242Z,53.20
2018-12-18T00:09:19.280Z,53.20
2018-12-18T00:09:50.397Z,53.20
2018-12-18T00:10:21.436Z,53.30
2018-12-18T00:10:52.590Z,53.20
2018-12-18T00:11:23.625Z,53.30
2018-12-18T00:11:59.266Z,53.30
2018-12-18T00:12:27.892Z,53.30
2018-12-18T00:12:58.930Z,53.30
2018-12-18T00:13:29.975Z,53.30
2018-12-18T00:14:01.046Z,53.30
2018-12-18T00:14:32.059Z,53.30
2018-12-18T00:15:03.099Z,53.30
2018-12-18T00:15:34.176Z,53.30
2018-12-18T00:16:05.258Z,53.30
2018-12-18T00:16:36.322Z,53.30
2018-12-18T00:17:07.361Z,53.30
2018-12-18T00:17:38.399Z,53.20
2018-12-18T00:18:09.506Z,53.30
2018-12-18T00:18:40.664Z,53.30
2018-12-18T00:19:11.707Z,53.30
2018-12-18T00:19:42.796Z,53.40
2018-12-18T00:20:13.941Z,53.30
2018-12-18T00:20:45.008Z,53.30
2018-12-18T00:21:16.052Z,53.30
2018-12-18T00:21:47.171Z,53.30
2018-12-18T00:22:18.260Z,53.20
2018-12-18T00:22:49.324Z,53.20
2018-12-18T00:23:20.462Z,53.20
2018-12-18T00:23:51.524Z,53.10
2018-12-18T00:24:22.628Z,53.10
2018-12-18T00:24:53.709Z,53.10
2018-12-18T00:25:24.795Z,53.10
2018-12-18T00:25:55.879Z,53.10
2018-12-18T00:26:26.963Z,53.00
2018-12-18T00:26:58.057Z,53.00
2018-12-18T00:27:29.216Z,52.60
2018-12-18T00:28:00.244Z,53.00
2018-12-18T00:28:31.308Z,53.00
2018-12-18T00:29:02.385Z,53.20
2018-12-18T00:29:33.485Z,53.00
2018-12-18T00:30:04.535Z,52.90
2018-12-18T00:30:35.587Z,52.90
2018-12-18T00:31:06.619Z,53.00
2018-12-18T00:31:37.689Z,52.90
2018-12-18T00:32:08.783Z,53.00
2018-12-18T00:32:39.903Z,52.90
2018-12-18T00:33:10.969Z,53.00
2018-12-18T00:33:46.068Z,53.70
2018-12-18T00:34:15.156Z,53.00
2018-12-18T00:34:46.199Z,53.00
2018-12-18T00:35:17.303Z,53.00
2018-12-18T00:35:48.321Z,53.00
2018-12-18T00:36:19.434Z,53.00
2018-12-18T00:36:50.580Z,53.00
2018-12-18T00:37:21.683Z,53.00
2018-12-18T00:37:52.847Z,53.00
2018-12-18T00:38:23.978Z,53.00
2018-12-18T00:38:55.015Z,53.10
2018-12-18T00:39:26.083Z,53.10
2018-12-18T00:39:57.158Z,53.10
2018-12-18T00:40:28.317Z,53.10
2018-12-18T00:40:59.547Z,53.10
2018-12-18T00:41:30.618Z,53.10
2018-12-18T00:42:01.698Z,53.10
2018-12-18T00:42:32.813Z,53.10
2018-12-18T00:43:03.933Z,53.20
2018-12-18T00:43:35.043Z,53.20
2018-12-18T00:44:06.086Z,53.20
2018-12-18T00:44:37.224Z,53.20
2018-12-18T00:45:08.234Z,53.20
2018-12-18T00:45:39.277Z,53.20
2018-12-18T00:46:10.342Z,53.20
2018-12-18T00:46:41.416Z,53.20
2018-12-18T00:47:12.492Z,53.10
2018-12-18T00:47:43.571Z,53.10
2018-12-18T00:48:14.646Z,53.10
2018-12-18T00:48:45.731Z,53.00
2018-12-18T00:49:16.793Z,53.00
2018-12-18T00:49:48.020Z,53.00
2018-12-18T00:50:19.095Z,53.00
2018-12-18T00:50:50.159Z,53.00
2018-12-18T00:51:21.268Z,53.00
2018-12-18T00:51:52.333Z,53.00
2018-12-18T00:52:23.459Z,53.00
2018-12-18T00:52:54.832Z,53.00
2018-12-18T00:53:25.872Z,53.00
2018-12-18T00:53:57.014Z,52.90
2018-12-18T00:54:28.067Z,52.90
2018-12-18T00:54:59.144Z,52.90
2018-12-18T00:55:30.180Z,52.90
2018-12-18T00:56:01.230Z,52.80
2018-12-18T00:56:32.295Z,52.80
2018-12-18T00:57:03.363Z,52.80
2018-12-18T00:57:34.403Z,52.80
2018-12-18T00:58:05.481Z,52.80
2018-12-18T00:58:36.531Z,52.80
2018-12-18T00:59:07.612Z,52.70
2018-12-18T00:59:38.688Z,52.70
2018-12-18T01:00:09.787Z,52.70
2018-12-18T01:00:40.923Z,52.70
2018-12-18T01:01:11.981Z,52.80
2018-12-18T01:01:43.120Z,52.70
2018-12-18T01:02:14.219Z,52.70
2018-12-18T01:02:45.311Z,52.70
2018-12-18T01:03:16.408Z,52.80
2018-12-18T01:03:52.754Z,52.80
2018-12-18T01:04:20.556Z,52.80
2018-12-18T01:04:51.633Z,52.80
2018-12-18T01:05:22.758Z,52.90
2018-12-18T01:05:53.855Z,52.90
2018-12-18T01:06:24.911Z,52.90
2018-12-18T01:06:55.952Z,52.90
2018-12-18T01:07:27.007Z,52.90
2018-12-18T01:07:58.058Z,52.90
2018-12-18T01:08:29.113Z,52.90
2018-12-18T01:09:00.159Z,52.80
2018-12-18T01:09:31.187Z,52.80
2018-12-18T01:10:02.235Z,52.80
2018-12-18T01:10:33.303Z,52.80
2018-12-18T01:11:04.348Z,52.70
2018-12-18T01:11:35.404Z,52.80
2018-12-18T01:12:06.467Z,52.80
2018-12-18T01:12:37.508Z,52.70
2018-12-18T01:13:08.574Z,52.80
2018-12-18T01:13:39.753Z,52.80
2018-12-18T01:14:10.908Z,52.70
2018-12-18T01:14:41.968Z,52.70
2018-12-18T01:15:13.027Z,52.80
2018-12-18T01:15:44.046Z,52.80
2018-12-18T01:16:15.101Z,52.70
2018-12-18T01:16:46.146Z,52.70
2018-12-18T01:17:17.222Z,52.70
2018-12-18T01:17:48.331Z,52.80
2018-12-18T01:18:19.384Z,52.70
2018-12-18T01:18:50.479Z,52.70
2018-12-18T01:19:21.579Z,52.70
2018-12-18T01:19:52.647Z,52.60
2018-12-18T01:20:23.791Z,52.70
2018-12-18T01:20:54.871Z,52.70
2018-12-18T01:21:25.939Z,52.70
2018-12-18T01:21:57.017Z,52.70
2018-12-18T01:22:28.097Z,52.70
2018-12-18T01:22:59.184Z,52.80
2018-12-18T01:23:30.319Z,52.70
2018-12-18T01:24:01.367Z,52.80
2018-12-18T01:24:32.411Z,52.80
2018-12-18T01:25:03.484Z,52.70
2018-12-18T01:25:34.555Z,52.60
2018-12-18T01:26:05.596Z,52.60
2018-12-18T01:26:36.678Z,52.60
2018-12-18T01:27:07.738Z,52.60
2018-12-18T01:27:38.830Z,52.60
2018-12-18T01:28:09.888Z,52.60
2018-12-18T01:28:40.969Z,52.60
2018-12-18T01:29:12.027Z,52.60
2018-12-18T01:29:43.096Z,52.60
2018-12-18T01:30:14.164Z,52.60
2018-12-18T01:30:45.254Z,52.60
2018-12-18T01:31:16.290Z,52.60
2018-12-18T01:31:47.363Z,52.60
2018-12-18T01:32:18.445Z,52.60
2018-12-18T01:32:49.632Z,52.60
2018-12-18T01:33:20.695Z,52.50
2018-12-18T01:33:51.792Z,52.60
2018-12-18T01:34:22.829Z,52.50
2018-12-18T01:34:54.018Z,52.50
2018-12-18T01:35:25.052Z,52.50
2018-12-18T01:35:56.111Z,52.50
2018-12-18T01:36:27.218Z,52.50
2018-12-18T01:36:58.270Z,52.60
2018-12-18T01:37:29.337Z,52.70
2018-12-18T01:38:00.405Z,53.10
2018-12-18T01:38:31.511Z,52.50
2018-12-18T01:39:02.587Z,52.50
2018-12-18T01:39:33.775Z,52.50
2018-12-18T01:40:04.838Z,52.50
2018-12-18T01:40:35.873Z,52.50
2018-12-18T01:41:06.941Z,52.50
2018-12-18T01:41:37.985Z,52.50
2018-12-18T01:42:09.051Z,52.50
2018-12-18T01:42:40.139Z,52.50
2018-12-18T01:43:11.171Z,52.60
2018-12-18T01:43:42.222Z,52.50
2018-12-18T01:44:13.267Z,52.60
2018-12-18T01:44:44.331Z,52.60
2018-12-18T01:45:15.458Z,52.60
2018-12-18T01:45:46.520Z,52.50
2018-12-18T01:46:17.715Z,52.60
2018-12-18T01:46:48.788Z,52.50
2018-12-18T01:47:19.816Z,52.50
2018-12-18T01:47:50.990Z,52.50
2018-12-18T01:48:22.048Z,53.20
2018-12-18T01:48:53.137Z,52.50
2018-12-18T01:49:24.172Z,52.50
2018-12-18T01:49:55.232Z,52.50
2018-12-18T01:50:26.264Z,52.60
2018-12-18T01:50:57.312Z,52.60
2018-12-18T01:51:28.371Z,52.50
2018-12-18T01:51:59.435Z,52.50
2018-12-18T01:52:30.593Z,52.50
2018-12-18T01:53:01.673Z,52.50
2018-12-18T01:53:32.808Z,52.40
2018-12-18T01:54:03.889Z,52.50
2018-12-18T01:54:35.000Z,52.50
2018-12-18T01:55:06.041Z,52.40
2018-12-18T01:55:37.091Z,52.40
2018-12-18T01:56:08.131Z,52.40
2018-12-18T01:56:39.159Z,52.50
2018-12-18T01:57:10.234Z,52.40
2018-12-18T01:57:41.300Z,52.30
2018-12-18T01:58:12.508Z,52.40
2018-12-18T01:58:43.564Z,52.40
2018-12-18T01:59:14.693Z,52.40
2018-12-18T01:59:45.896Z,52.40
2018-12-18T02:00:16.940Z,52.40
2018-12-18T02:00:48.016Z,52.40
2018-12-18T02:01:19.067Z,52.50
2018-12-18T02:01:50.117Z,52.40
2018-12-18T02:02:21.197Z,52.50
2018-12-18T02:02:52.266Z,52.50
2018-12-18T02:03:23.333Z,52.50
2018-12-18T02:03:54.449Z,52.50
2018-12-18T02:04:25.553Z,52.50
2018-12-18T02:04:56.646Z,52.50
2018-12-18T02:05:27.762Z,52.50
2018-12-18T02:05:58.798Z,52.50
2018-12-18T02:06:29.940Z,52.50
2018-12-18T02:07:01.094Z,52.50
2018-12-18T02:07:32.123Z,52.50
2018-12-18T02:08:03.252Z,52.50
2018-12-18T02:08:34.312Z,52.50
2018-12-18T02:09:05.437Z,52.60
2018-12-18T02:09:36.564Z,52.60
2018-12-18T02:10:07.640Z,52.60
2018-12-18T02:10:38.801Z,52.70
2018-12-18T02:11:09.871Z,52.60
2018-12-18T02:11:41.137Z,52.50
2018-12-18T02:12:12.160Z,52.50
2018-12-18T02:12:43.199Z,52.40
2018-12-18T02:13:14.249Z,52.40
2018-12-18T02:13:45.289Z,52.40
2018-12-18T02:14:16.379Z,52.30
2018-12-18T02:14:47.496Z,52.40
2018-12-18T02:15:18.565Z,52.30
2018-12-18T02:15:49.633Z,52.30
2018-12-18T02:16:20.786Z,52.30
2018-12-18T02:16:51.859Z,52.30
2018-12-18T02:17:22.945Z,52.20
2018-12-18T02:17:54.042Z,52.30
2018-12-18T02:18:25.092Z,52.20
2018-12-18T02:18:56.168Z,52.20
2018-12-18T02:19:27.310Z,52.20
2018-12-18T02:19:58.379Z,52.20
2018-12-18T02:20:29.427Z,52.20
2018-12-18T02:21:00.452Z,52.20
2018-12-18T02:21:31.515Z,52.10
2018-12-18T02:22:02.591Z,52.10
2018-12-18T02:22:33.636Z,52.20
2018-12-18T02:23:04.699Z,52.20
2018-12-18T02:23:35.778Z,52.20
2018-12-18T02:24:06.814Z,52.40
2018-12-18T02:24:37.892Z,52.10
2018-12-18T02:25:09.036Z,52.10
2018-12-18T02:25:40.122Z,52.20
2018-12-18T02:26:11.185Z,52.20
2018-12-18T02:26:42.264Z,52.30
2018-12-18T02:27:13.333Z,52.30
2018-12-18T02:27:44.411Z,52.30
2018-12-18T02:28:15.521Z,52.30
2018-12-18T02:28:46.567Z,52.30
2018-12-18T02:29:17.659Z,52.40
2018-12-18T02:29:48.741Z,52.40
2018-12-18T02:30:19.815Z,52.40
2018-12-18T02:30:50.868Z,52.30
2018-12-18T02:31:21.958Z,52.30
2018-12-18T02:31:53.017Z,52.30
2018-12-18T02:32:24.080Z,52.30
2018-12-18T02:32:55.156Z,52.30
2018-12-18T02:33:26.231Z,52.30
2018-12-18T02:33:57.291Z,52.30
2018-12-18T02:34:28.355Z,52.30
2018-12-18T02:34:59.447Z,52.30
2018-12-18T02:35:30.627Z,52.30
2018-12-18T02:36:01.750Z,52.30
2018-12-18T02:36:32.893Z,52.30
2018-12-18T02:37:04.076Z,52.20
2018-12-18T02:37:35.205Z,52.30
2018-12-18T02:38:06.254Z,52.30
2018-12-18T02:38:37.441Z,52.30
2018-12-18T02:39:08.491Z,52.30
2018-12-18T02:39:39.584Z,52.00
2018-12-18T02:40:10.738Z,52.30
2018-12-18T02:40:41.779Z,52.30
2018-12-18T02:41:12.883Z,52.30
2018-12-18T02:41:43.941Z,52.30
2018-12-18T02:42:15.016Z,52.20
2018-12-18T02:42:46.119Z,52.30
2018-12-18T02:43:17.167Z,52.30
2018-12-18T02:43:48.274Z,52.20
2018-12-18T02:44:19.347Z,52.30
2018-12-18T02:44:50.391Z,52.30
2018-12-18T02:45:21.427Z,52.30
2018-12-18T02:45:52.535Z,52.20
2018-12-18T02:46:23.861Z,52.20
2018-12-18T02:46:54.876Z,52.20
2018-12-18T02:47:25.926Z,52.10
2018-12-18T02:47:57.035Z,52.10
2018-12-18T02:48:28.079Z,52.10
2018-12-18T02:48:59.132Z,52.10
2018-12-18T02:49:30.197Z,52.10
2018-12-18T02:50:01.368Z,52.20
2018-12-18T02:50:32.443Z,52.10
2018-12-18T02:51:03.618Z,52.10
2018-12-18T02:51:34.675Z,52.20
2018-12-18T02:52:05.760Z,52.10
2018-12-18T02:52:36.842Z,52.20
2018-12-18T02:53:07.870Z,52.10
2018-12-18T02:53:38.992Z,52.40
2018-12-18T02:54:10.240Z,52.20
2018-12-18T02:54:41.317Z,52.10
2018-12-18T02:55:12.433Z,52.10
2018-12-18T02:55:43.626Z,52.10
2018-12-18T02:56:14.761Z,52.00
2018-12-18T02:56:45.815Z,52.10
2018-12-18T02:57:17.028Z,52.10
2018-12-18T02:57:48.167Z,52.00
2018-12-18T02:58:19.203Z,52.70
2018-12-18T02:58:50.243Z,52.00
2018-12-18T02:59:21.291Z,52.00
2018-12-18T02:59:52.338Z,52.00
2018-12-18T03:00:23.396Z,52.00
2018-12-18T03:00:54.573Z,52.00
2018-12-18T03:01:25.600Z,52.00
2018-12-18T03:01:56.678Z,52.00
2018-12-18T03:02:27.728Z,52.00
2018-12-18T03:02:58.853Z,52.10
2018-12-18T03:03:29.891Z,52.10
2018-12-18T03:04:00.935Z,52.10
2018-12-18T03:04:31.994Z,52.10
2018-12-18T03:05:03.105Z,52.10
2018-12-18T03:05:34.225Z,52.10
2018-12-18T03:06:05.263Z,52.20
2018-12-18T03:06:36.308Z,52.20
2018-12-18T03:07:07.340Z,52.20
2018-12-18T03:07:38.379Z,52.40
2018-12-18T03:08:09.441Z,52.20
2018-12-18T03:08:40.499Z,52.20
2018-12-18T03:09:11.576Z,52.10
2018-12-18T03:09:42.635Z,52.10
2018-12-18T03:10:13.672Z,52.10
2018-12-18T03:10:44.805Z,52.10
2018-12-18T03:11:15.842Z,52.10
2018-12-18T03:11:46.884Z,52.10
2018-12-18T03:12:17.925Z,52.10
2018-12-18T03:12:48.967Z,52.10
2018-12-18T03:13:19.999Z,52.20
2018-12-18T03:13:51.040Z,52.10
2018-12-18T03:14:22.095Z,52.10
2018-12-18T03:14:53.138Z,52.10
2018-12-18T03:15:24.179Z,52.10
2018-12-18T03:15:55.216Z,52.10
2018-12-18T03:16:26.288Z,52.70
2018-12-18T03:16:57.391Z,52.10
2018-12-18T03:17:28.508Z,52.00
2018-12-18T03:17:59.547Z,52.70
2018-12-18T03:18:30.589Z,52.00
2018-12-18T03:19:01.645Z,51.90
2018-12-18T03:19:32.809Z,51.90
2018-12-18T03:20:03.843Z,51.90
2018-12-18T03:20:34.913Z,51.90
2018-12-18T03:21:06.532Z,52.00
2018-12-18T03:21:37.588Z,52.00
2018-12-18T03:22:08.817Z,52.00
2018-12-18T03:22:39.948Z,52.00
2018-12-18T03:23:11.064Z,52.00
2018-12-18T03:23:42.123Z,51.90
2018-12-18T03:24:13.283Z,52.00
2018-12-18T03:24:44.342Z,52.00
2018-12-18T03:25:15.383Z,52.00
2018-12-18T03:25:46.420Z,52.00
2018-12-18T03:26:17.488Z,52.00
2018-12-18T03:26:48.575Z,52.10
2018-12-18T03:27:19.692Z,52.00
2018-12-18T03:27:50.796Z,52.00
2018-12-18T03:28:21.819Z,52.00
2018-12-18T03:28:52.890Z,52.70
2018-12-18T03:29:23.983Z,52.10
2018-12-18T03:29:55.028Z,52.00
2018-12-18T03:30:26.062Z,52.10
2018-12-18T03:30:57.686Z,52.00
2018-12-18T03:31:28.845Z,52.00
2018-12-18T03:31:59.961Z,51.90
2018-12-18T03:32:31.000Z,52.00
2018-12-18T03:33:02.049Z,52.00
2018-12-18T03:33:33.199Z,52.00
2018-12-18T03:34:04.236Z,52.10
2018-12-18T03:34:35.307Z,52.10
2018-12-18T03:35:06.348Z,52.10
2018-12-18T03:35:37.403Z,52.00
2018-12-18T03:36:08.463Z,52.00
2018-12-18T03:36:39.504Z,52.00
2018-12-18T03:37:10.552Z,52.00
2018-12-18T03:37:41.603Z,51.90
2018-12-18T03:38:12.710Z,51.90
2018-12-18T03:38:43.752Z,51.80
2018-12-18T03:39:14.795Z,51.80
2018-12-18T03:39:45.851Z,51.90
2018-12-18T03:40:16.888Z,52.50
2018-12-18T03:40:47.928Z,51.90
2018-12-18T03:41:18.968Z,51.80
2018-12-18T03:41:50.007Z,51.90
2018-12-18T03:42:21.051Z,51.80
2018-12-18T03:42:52.124Z,51.80
2018-12-18T03:43:23.167Z,51.80
2018-12-18T03:43:54.216Z,51.80
2018-12-18T03:44:25.304Z,51.80
2018-12-18T03:44:56.388Z,51.70
2018-12-18T03:45:27.425Z,51.80
2018-12-18T03:45:58.492Z,51.80
2018-12-18T03:46:29.599Z,51.70
2018-12-18T03:47:00.644Z,51.70
2018-12-18T03:47:31.679Z,51.70
2018-12-18T03:48:02.721Z,51.70
2018-12-18T03:48:33.836Z,51.70
2018-12-18T03:49:04.871Z,51.80
2018-12-18T03:49:35.928Z,51.80
2018-12-18T03:50:06.970Z,51.80
2018-12-18T03:50:38.083Z,51.80
2018-12-18T03:51:09.120Z,51.90
2018-12-18T03:51:40.181Z,51.90
2018-12-18T03:52:11.296Z,51.90
2018-12-18T03:52:42.428Z,51.90
2018-12-18T03:53:13.472Z,51.90
2018-12-18T03:53:44.511Z,52.00
2018-12-18T03:54:15.631Z,52.00
2018-12-18T03:54:46.683Z,52.00
2018-12-18T03:55:17.728Z,52.50
2018-12-18T03:55:48.768Z,52.10
2018-12-18T03:56:19.812Z,52.00
2018-12-18T03:56:50.848Z,52.00
2018-12-18T03:57:21.923Z,52.00
2018-12-18T03:57:53.019Z,52.00
2018-12-18T03:58:24.065Z,52.00
2018-12-18T03:58:55.181Z,52.00
2018-12-18T03:59:26.212Z,52.00
2018-12-18T03:59:57.343Z,52.00
2018-12-18T04:00:28.387Z,51.90
2018-12-18T04:00:59.443Z,52.10
2018-12-18T04:01:30.493Z,52.00
2018-12-18T04:02:01.532Z,51.90
2018-12-18T04:02:32.688Z,52.00
2018-12-18T04:03:03.726Z,52.00
2018-12-18T04:03:34.763Z,52.00
2018-12-18T04:04:05.843Z,52.00
2018-12-18T04:04:36.907Z,51.90
2018-12-18T04:05:08.042Z,51.90
2018-12-18T04:05:39.070Z,52.00
2018-12-18T04:06:10.107Z,52.00
2018-12-18T04:06:41.153Z,52.00
2018-12-18T04:07:12.192Z,51.90
2018-12-18T04:07:43.231Z,51.90
2018-12-18T04:08:14.275Z,51.90
2018-12-18T04:08:45.315Z,51.90
2018-12-18T04:09:16.354Z,51.80
2018-12-18T04:09:47.416Z,51.90
2018-12-18T04:10:18.471Z,51.90
2018-12-18T04:10:49.573Z,51.80
2018-12-18T04:11:20.613Z,51.80
2018-12-18T04:11:51.731Z,51.80
2018-12-18T04:12:22.776Z,51.80
2018-12-18T04:12:53.815Z,51.80
2018-12-18T04:13:24.857Z,51.70
2018-12-18T04:13:55.893Z,51.70
2018-12-18T04:14:26.934Z,51.70
2018-12-18T04:14:58.055Z,51.20
2018-12-18T04:15:29.102Z,51.70
2018-12-18T04:16:00.216Z,51.70
2018-12-18T04:16:31.262Z,51.60
2018-12-18T04:17:02.297Z,51.70
2018-12-18T04:17:33.337Z,51.70
2018-12-18T04:18:04.378Z,51.80
2018-12-18T04:18:35.419Z,51.90
2018-12-18T04:19:06.455Z,51.90
2018-12-18T04:19:37.495Z,51.90
2018-12-18T04:20:08.543Z,51.90
2018-12-18T04:20:39.583Z,51.90
2018-12-18T04:21:10.660Z,52.00
2018-12-18T04:21:41.700Z,51.90
2018-12-18T04:22:12.760Z,51.90
2018-12-18T04:22:43.879Z,51.90
2018-12-18T04:23:14.923Z,51.90
2018-12-18T04:23:45.981Z,51.90
2018-12-18T04:24:17.011Z,51.90
2018-12-18T04:24:48.047Z,51.90
2018-12-18T04:25:19.095Z,51.80
2018-12-18T04:25:50.148Z,51.80
2018-12-18T04:26:21.188Z,51.80
2018-12-18T04:26:52.237Z,51.90
2018-12-18T04:27:23.281Z,51.80
2018-12-18T04:27:54.319Z,51.80
2018-12-18T04:28:25.388Z,51.90
2018-12-18T04:28:56.432Z,51.90
2018-12-18T04:29:27.475Z,51.90
2018-12-18T04:29:58.516Z,51.90
2018-12-18T04:30:29.563Z,51.90
2018-12-18T04:31:00.684Z,51.90
2018-12-18T04:31:31.731Z,51.90
2018-12-18T04:32:02.857Z,51.90
2018-12-18T04:32:33.923Z,51.90
2018-12-18T04:33:04.968Z,51.90
2018-12-18T04:33:36.196Z,51.90
2018-12-18T04:34:07.231Z,51.90
2018-12-18T04:34:42.911Z,51.90
2018-12-18T04:35:11.396Z,51.80
2018-12-18T04:35:42.451Z,51.90
2018-12-18T04:36:13.557Z,52.00
2018-12-18T04:36:44.629Z,52.00
2018-12-18T04:37:15.676Z,52.20
2018-12-18T04:37:46.711Z,52.00
2018-12-18T04:38:17.757Z,52.00
2018-12-18T04:38:48.899Z,51.90
2018-12-18T04:39:19.944Z,51.90
2018-12-18T04:39:50.987Z,51.90
2018-12-18T04:40:22.047Z,51.80
2018-12-18T04:40:53.078Z,51.80
2018-12-18T04:41:24.111Z,51.80
2018-12-18T04:41:55.155Z,51.80
2018-12-18T04:42:26.188Z,51.80
2018-12-18T04:42:57.348Z,51.80
2018-12-18T04:43:28.448Z,51.30
2018-12-18T04:43:59.484Z,51.70
2018-12-18T04:44:30.519Z,51.70
2018-12-18T04:45:01.559Z,51.80
2018-12-18T04:45:32.614Z,51.70
2018-12-18T04:46:03.655Z,51.70
2018-12-18T04:46:34.733Z,51.70
2018-12-18T04:47:05.819Z,51.70
2018-12-18T04:47:36.860Z,51.70
2018-12-18T04:48:07.903Z,51.70
2018-12-18T04:48:38.941Z,51.70
2018-12-18T04:49:10.564Z,51.70
2018-12-18T04:49:41.599Z,51.70
2018-12-18T04:50:12.657Z,51.70
2018-12-18T04:50:43.700Z,51.70
2018-12-18T04:51:14.747Z,52.30
2018-12-18T04:51:45.791Z,51.70
2018-12-18T04:52:16.838Z,51.70
2018-12-18T04:52:47.959Z,51.70
2018-12-18T04:53:18.991Z,51.70
2018-12-18T04:53:50.033Z,51.80
2018-12-18T04:54:21.084Z,52.20
2018-12-18T04:54:52.124Z,51.70
2018-12-18T04:55:23.163Z,51.70
2018-12-18T04:55:54.207Z,51.70
2018-12-18T04:56:25.247Z,51.70
2018-12-18T04:56:56.324Z,51.70
2018-12-18T04:57:27.391Z,51.80
2018-12-18T04:57:58.407Z,51.80
2018-12-18T04:58:29.452Z,51.80
2018-12-18T04:59:00.487Z,51.90
2018-12-18T04:59:31.523Z,51.90
2018-12-18T05:00:02.563Z,51.90
2018-12-18T05:00:33.696Z,52.50
2018-12-18T05:01:04.743Z,51.90
2018-12-18T05:01:35.788Z,51.80
2018-12-18T05:02:06.832Z,51.80
2018-12-18T05:02:37.876Z,51.70
2018-12-18T05:03:08.917Z,51.70
2018-12-18T05:03:39.961Z,51.70
2018-12-18T05:04:10.998Z,51.70
2018-12-18T05:04:42.035Z,51.70
2018-12-18T05:05:13.109Z,51.70
2018-12-18T05:05:44.235Z,51.70
2018-12-18T05:06:15.276Z,51.60
2018-12-18T05:06:46.334Z,51.70
2018-12-18T05:07:17.380Z,51.60
2018-12-18T05:07:48.499Z,51.80
2018-12-18T05:08:19.543Z,51.70
2018-12-18T05:08:50.589Z,51.60
2018-12-18T05:09:21.728Z,51.60
2018-12-18T05:09:52.751Z,51.60
2018-12-18T05:10:23.797Z,51.60
2018-12-18T05:10:54.931Z,51.60
2018-12-18T05:11:25.976Z,51.60
2018-12-18T05:11:57.016Z,51.60
2018-12-18T05:12:28.064Z,51.70
2018-12-18T05:12:59.130Z,51.60
2018-12-18T05:13:30.175Z,51.60
2018-12-18T05:14:01.211Z,51.60
2018-12-18T05:14:32.253Z,52.00
2018-12-18T05:15:03.326Z,51.70
2018-12-18T05:15:34.382Z,51.60
2018-12-18T05:16:05.503Z,51.70
2018-12-18T05:16:36.555Z,51.70
2018-12-18T05:17:07.603Z,51.60
2018-12-18T05:17:38.640Z,51.70
2018-12-18T05:18:10.283Z,51.60
2018-12-18T05:18:41.368Z,51.70
2018-12-18T05:19:12.409Z,51.80
2018-12-18T05:19:43.523Z,51.80
2018-12-18T05:20:14.570Z,51.80
2018-12-18T05:20:46.137Z,51.80
2018-12-18T05:21:17.311Z,51.90
2018-12-18T05:21:48.360Z,51.90
2018-12-18T05:22:19.402Z,51.90
2018-12-18T05:22:50.446Z,51.90
2018-12-18T05:23:21.495Z,51.90
2018-12-18T05:23:52.533Z,51.80
2018-12-18T05:24:23.584Z,51.80
2018-12-18T05:24:54.691Z,51.80
2018-12-18T05:25:25.760Z,51.80
2018-12-18T05:25:56.895Z,51.80
2018-12-18T05:26:27.978Z,51.80
2018-12-18T05:26:59.023Z,51.80
2018-12-18T05:27:30.047Z,51.70
2018-12-18T05:28:01.440Z,51.70
2018-12-18T05:28:32.460Z,51.70
2018-12-18T05:29:03.579Z,51.80
2018-12-18T05:29:34.628Z,52.00
2018-12-18T05:30:05.664Z,51.60
2018-12-18T05:30:36.715Z,51.60
2018-12-18T05:31:07.779Z,51.60
2018-12-18T05:31:38.839Z,51.60
2018-12-18T05:32:09.868Z,51.60
2018-12-18T05:32:40.908Z,51.60
2018-12-18T05:33:11.953Z,51.60
2018-12-18T05:33:43.068Z,51.60
2018-12-18T05:34:14.165Z,51.60
2018-12-18T05:34:45.286Z,51.60
2018-12-18T05:35:16.296Z,51.60
2018-12-18T05:35:47.351Z,51.60
2018-12-18T05:36:18.396Z,52.30
2018-12-18T05:36:49.483Z,51.60
2018-12-18T05:37:20.603Z,51.50
2018-12-18T05:37:51.703Z,51.50
2018-12-18T05:38:22.767Z,51.50
2018-12-18T05:38:53.808Z,51.50
2018-12-18T05:39:24.851Z,51.50
2018-12-18T05:39:55.922Z,51.50
2018-12-18T05:40:26.967Z,51.50
2018-12-18T05:40:58.016Z,51.50
2018-12-18T05:41:29.105Z,51.50
2018-12-18T05:42:00.147Z,51.60
2018-12-18T05:42:31.186Z,51.60
2018-12-18T05:43:02.226Z,51.60
2018-12-18T05:43:33.291Z,51.60
2018-12-18T05:44:04.327Z,52.30
2018-12-18T05:44:35.513Z,51.60
2018-12-18T05:45:06.587Z,51.60
2018-12-18T05:45:37.663Z,51.60
2018-12-18T05:46:08.746Z,51.60
2018-12-18T05:46:39.807Z,51.60
2018-12-18T05:47:10.830Z,51.60
2018-12-18T05:47:41.931Z,51.60
2018-12-18T05:48:12.988Z,51.60
2018-12-18T05:48:44.027Z,51.60
2018-12-18T05:49:15.072Z,51.60
2018-12-18T05:49:46.140Z,52.20
2018-12-18T05:50:17.179Z,51.60
2018-12-18T05:50:48.235Z,51.60
2018-12-18T05:51:19.324Z,51.60
2018-12-18T05:51:50.402Z,51.60
2018-12-18T05:52:21.442Z,51.60
2018-12-18T05:52:52.484Z,51.00
2018-12-18T05:53:23.524Z,51.70
2018-12-18T05:53:54.603Z,51.60
2018-12-18T05:54:25.647Z,51.70
2018-12-18T05:54:56.763Z,51.60
2018-12-18T05:55:27.803Z,51.70
2018-12-18T05:55:58.863Z,51.90
2018-12-18T05:56:29.911Z,51.70
2018-12-18T05:57:00.977Z,51.70
2018-12-18T05:57:31.996Z,51.60
2018-12-18T05:58:03.035Z,51.60
2018-12-18T05:58:34.075Z,51.60
2018-12-18T05:59:05.115Z,51.70
2018-12-18T05:59:36.155Z,51.70
2018-12-18T06:00:07.200Z,51.70
2018-12-18T06:00:38.235Z,51.70
2018-12-18T06:01:09.288Z,51.70
2018-12-18T06:01:40.328Z,51.70
2018-12-18T06:02:11.376Z,51.60
2018-12-18T06:02:42.420Z,52.30
2018-12-18T06:03:13.463Z,51.60
2018-12-18T06:03:44.503Z,51.50
2018-12-18T06:04:15.543Z,51.50
2018-12-18T06:04:46.588Z,51.40
2018-12-18T06:05:17.647Z,51.40
2018-12-18T06:05:48.655Z,51.40
2018-12-18T06:06:19.712Z,51.60
2018-12-18T06:06:50.755Z,51.40
2018-12-18T06:07:21.791Z,51.30
2018-12-18T06:07:52.831Z,51.30
2018-12-18T06:08:23.895Z,51.30
2018-12-18T06:08:54.931Z,51.40
2018-12-18T06:09:25.976Z,51.40
2018-12-18T06:09:57.020Z,51.30
2018-12-18T06:10:28.064Z,51.30
2018-12-18T06:10:59.143Z,51.30
2018-12-18T06:11:30.159Z,51.40
2018-12-18T06:12:01.208Z,51.60
2018-12-18T06:12:32.248Z,51.40
2018-12-18T06:13:03.287Z,51.40
2018-12-18T06:13:34.332Z,51.30
2018-12-18T06:14:05.394Z,51.30
2018-12-18T06:14:36.410Z,51.40
2018-12-18T06:15:07.448Z,51.40
2018-12-18T06:15:38.490Z,51.40
2018-12-18T06:16:09.544Z,51.50
2018-12-18T06:16:40.596Z,51.50
2018-12-18T06:17:11.651Z,51.50
2018-12-18T06:17:42.687Z,51.50
2018-12-18T06:18:13.753Z,51.60
2018-12-18T06:18:44.871Z,51.60
2018-12-18T06:19:15.912Z,51.60
2018-12-18T06:19:47.029Z,51.60
2018-12-18T06:20:18.079Z,51.60
2018-12-18T06:20:49.115Z,51.60
2018-12-18T06:21:20.168Z,51.50
2018-12-18T06:21:51.210Z,51.50
2018-12-18T06:22:22.275Z,52.20
2018-12-18T06:22:53.308Z,51.50
2018-12-18T06:23:24.348Z,51.50
2018-12-18T06:23:55.389Z,51.50
2018-12-18T06:24:26.443Z,51.50
2018-12-18T06:24:57.471Z,51.50
2018-12-18T06:25:28.509Z,51.50
2018-12-18T06:25:59.551Z,51.40
2018-12-18T06:26:30.596Z,51.50
2018-12-18T06:27:01.635Z,51.40
2018-12-18T06:27:32.696Z,51.40
2018-12-18T06:28:03.747Z,51.40
2018-12-18T06:28:34.780Z,51.40
2018-12-18T06:29:05.820Z,51.40
2018-12-18T06:29:36.936Z,51.50
2018-12-18T06:30:07.992Z,51.50
2018-12-18T06:30:39.037Z,51.50
2018-12-18T06:31:10.091Z,51.50
2018-12-18T06:31:41.134Z,51.40
2018-12-18T06:32:12.171Z,51.40
2018-12-18T06:32:43.218Z,52.00
2018-12-18T06:33:14.257Z,51.40
2018-12-18T06:33:45.296Z,51.30
2018-12-18T06:34:16.340Z,51.30
2018-12-18T06:34:47.386Z,51.40
2018-12-18T06:35:18.419Z,51.30
2018-12-18T06:35:49.459Z,51.30
2018-12-18T06:36:20.511Z,51.40
2018-12-18T06:36:51.552Z,51.40
2018-12-18T06:37:22.660Z,51.40
2018-12-18T06:37:53.707Z,51.40
2018-12-18T06:38:24.742Z,51.40
2018-12-18T06:38:55.784Z,51.40
2018-12-18T06:39:26.840Z,51.40
2018-12-18T06:39:57.889Z,51.40
2018-12-18T06:40:28.916Z,51.30